createdAt,value
2019-03-22T00:04:07.176Z,8.50
2019-03-22T00:08:20.223Z,8.50
2019-03-22T00:12:33.149Z,8.50
2019-03-22T00:16:46.477Z,8.40
2019-03-22T00:20:59.293Z,8.40
2019-03-22T00:25:12.227Z,8.30
2019-03-22T00:29:25.325Z,8.20
2019-03-22T00:33:38.280Z,8.30
2019-03-22T00:37:52.442Z,8.30
2019-03-22T00:42:05.434Z,8.30
2019-03-22T00:46:18.500Z,8.30
2019-03-22T00:50:31.734Z,8.30
2019-03-22T00:54:44.658Z,8.30
2019-03-22T00:58:57.597Z,8.10
2019-03-22T01:03:10.731Z,8.20
2019-03-22T01:07:23.888Z,8.30
2019-03-22T01:11:36.963Z,8.30
2019-03-22T01:15:50.126Z,8.30
2019-03-22T01:20:03.163Z,8.30
2019-03-22T01:24:16.085Z,8.20
2019-03-22T01:28:29.111Z,8.10
2019-03-22T01:32:41.938Z,8.10
2019-03-22T01:36:55.355Z,8.20
2019-03-22T01:41:08.504Z,8.20
2019-03-22T01:45:21.392Z,8.30
2019-03-22T01:49:34.467Z,8.30
2019-03-22T01:53:47.709Z,8.00
2019-03-22T01:58:00.945Z,7.90
2019-03-22T02:02:13.764Z,7.90
2019-03-22T02:06:26.855Z,7.90
2019-03-22T02:10:40.201Z,7.90
2019-03-22T02:14:53.232Z,8.00
2019-03-22T02:19:06.402Z,8.00
2019-03-22T02:23:19.628Z,7.80
2019-03-22T02:27:32.759Z,7.70
2019-03-22T02:31:45.566Z,7.70
2019-03-22T02:35:58.627Z,7.80
2019-03-22T02:40:11.853Z,7.80
2019-03-22T02:44:24.689Z,7.80
2019-03-22T02:48:37.880Z,7.70
2019-03-22T02:52:51.584Z,7.50
2019-03-22T02:57:05.228Z,7.40
2019-03-22T03:01:18.450Z,7.40
2019-03-22T03:05:31.357Z,7.50
2019-03-22T03:09:44.428Z,7.50
2019-03-22T03:13:57.630Z,7.60
2019-03-22T03:18:11.848Z,7.50
2019-03-22T03:22:24.927Z,7.40
2019-03-22T03:26:38.696Z,7.50
2019-03-22T03:30:51.898Z,7.50
2019-03-22T03:35:05.359Z,7.50
2019-03-22T03:39:18.573Z,7.60
2019-03-22T03:43:31.518Z,7.60
2019-03-22T03:47:44.720Z,7.50
2019-03-22T03:51:57.838Z,7.30
2019-03-22T03:56:10.811Z,7.30
2019-03-22T04:00:23.833Z,7.40
2019-03-22T04:04:37.118Z,7.30
2019-03-22T04:08:50.110Z,7.10
2019-03-22T04:13:03.235Z,7.00
2019-03-22T04:17:16.372Z,6.90
2019-03-22T04:21:30.139Z,6.90
2019-03-22T04:25:43.775Z,7.00
2019-03-22T04:29:57.417Z,7.10
2019-03-22T04:34:10.649Z,7.10
2019-03-22T04:38:23.864Z,7.10
2019-03-22T04:42:36.794Z,7.00
2019-03-22T04:46:50.028Z,6.90
2019-03-22T04:51:05.116Z,6.80
2019-03-22T04:55:18.940Z,6.90
2019-03-22T04:59:32.994Z,6.80
2019-03-22T05:03:46.625Z,6.80
2019-03-22T05:07:59.949Z,6.70
2019-03-22T05:12:15.341Z,6.70
2019-03-22T05:16:29.208Z,6.70
2019-03-22T05:20:44.136Z,6.70
2019-03-22T05:24:59.483Z,6.60
2019-03-22T05:29:14.471Z,6.60
2019-03-22T05:33:27.285Z,6.50
2019-03-22T05:37:40.316Z,6.30
2019-03-22T05:41:53.559Z,6.20
2019-03-22T05:46:06.468Z,6.20
2019-03-22T05:50:19.520Z,6.20
2019-03-22T05:54:33.173Z,6.20
2019-03-22T05:58:46.379Z,6.10
2019-03-22T06:02:59.208Z,6.00
2019-03-22T06:07:12.141Z,6.00
2019-03-22T06:11:25.377Z,6.00
2019-03-22T06:15:38.300Z,6.10
2019-03-22T06:19:52.664Z,6.00
2019-03-22T06:24:06.336Z,6.00
2019-03-22T06:28:20.324Z,6.10
2019-03-22T06:32:33.493Z,6.10
2019-03-22T06:36:47.160Z,6.10
2019-03-22T06:41:00.804Z,6.00
2019-03-22T06:45:14.652Z,6.00
2019-03-22T06:49:27.873Z,6.00
2019-03-22T06:53:40.640Z,6.10
2019-03-22T06:57:54.931Z,6.10
2019-03-22T07:02:07.774Z,6.20
2019-03-22T07:06:20.809Z,6.20
2019-03-22T07:10:34.142Z,6.30
2019-03-22T07:14:47.912Z,6.50
2019-03-22T07:19:01.137Z,6.70
2019-03-22T07:23:14.790Z,6.90
2019-03-22T07:27:28.001Z,7.00
2019-03-22T07:31:40.888Z,7.10
2019-03-22T07:35:54.070Z,7.40
2019-03-22T07:40:07.260Z,7.50
2019-03-22T07:44:20.125Z,7.70
2019-03-22T07:48:33.257Z,8.00
2019-03-22T07:52:46.925Z,8.30
2019-03-22T07:57:00.236Z,8.70
2019-03-22T08:01:13.168Z,9.10
2019-03-22T08:05:26.089Z,9.60
2019-03-22T08:09:39.506Z,9.90
2019-03-22T08:13:52.869Z,10.40
2019-03-22T08:18:06.543Z,10.80
2019-03-22T08:22:19.868Z,11.10
2019-03-22T08:26:33.172Z,11.30
2019-03-22T08:30:46.122Z,11.40
2019-03-22T08:34:59.328Z,11.60
2019-03-22T08:39:12.694Z,11.90
2019-03-22T08:43:25.944Z,12.20
2019-03-22T08:47:38.861Z,12.40
2019-03-22T08:51:51.889Z,12.70
2019-03-22T08:56:05.657Z,12.90
2019-03-22T09:00:18.807Z,13.10
2019-03-22T09:04:31.673Z,13.20
2019-03-22T09:08:47.593Z,13.30
2019-03-22T09:13:00.059Z,13.60
2019-03-22T09:17:13.240Z,13.70
2019-03-22T09:21:26.481Z,13.70
2019-03-22T09:25:39.503Z,13.50
2019-03-22T09:29:52.550Z,13.60
2019-03-22T09:34:05.771Z,13.90
2019-03-22T09:38:19.330Z,13.90
2019-03-22T09:42:33.184Z,14.00
2019-03-22T09:46:46.440Z,14.10
2019-03-22T09:50:59.247Z,14.20
2019-03-22T09:55:14.097Z,14.40
2019-03-22T09:59:27.016Z,14.50
2019-03-22T10:03:42.528Z,14.80
2019-03-22T10:07:54.865Z,15.00
2019-03-22T10:12:07.816Z,15.20
2019-03-22T10:16:21.186Z,15.50
2019-03-22T10:20:34.419Z,15.70
2019-03-22T10:24:47.556Z,15.90
2019-03-22T10:29:00.583Z,16.10
2019-03-22T10:33:22.489Z,15.90
2019-03-22T10:37:28.696Z,15.80
2019-03-22T10:41:41.552Z,16.00
2019-03-22T10:45:54.644Z,16.10
2019-03-22T10:50:07.681Z,16.10
2019-03-22T10:54:20.612Z,16.30
2019-03-22T10:58:34.270Z,16.20
2019-03-22T11:02:48.149Z,16.30
2019-03-22T11:07:01.228Z,16.30
2019-03-22T11:11:14.998Z,16.20
2019-03-22T11:15:28.317Z,16.10
2019-03-22T11:19:42.159Z,16.10
2019-03-22T11:23:55.295Z,16.20
2019-03-22T11:28:08.225Z,16.20
2019-03-22T11:32:21.247Z,16.20
2019-03-22T11:36:33.972Z,16.20
2019-03-22T11:40:47.026Z,16.20
2019-03-22T11:45:00.409Z,16.30
2019-03-22T11:49:13.580Z,16.00
2019-03-22T11:53:26.504Z,15.80
2019-03-22T11:57:39.844Z,15.80
2019-03-22T12:01:53.507Z,16.00
2019-03-22T12:06:06.890Z,16.10
2019-03-22T12:10:20.412Z,16.30
2019-03-22T12:14:33.519Z,16.00
2019-03-22T12:18:46.632Z,15.90
2019-03-22T12:22:59.765Z,16.10
2019-03-22T12:27:12.891Z,16.20
2019-03-22T12:31:25.924Z,16.30
2019-03-22T12:35:39.166Z,15.90
2019-03-22T12:39:52.109Z,15.80
2019-03-22T12:44:05.317Z,15.70
2019-03-22T12:48:19.242Z,15.60
2019-03-22T12:52:32.403Z,15.50
2019-03-22T12:56:45.635Z,15.60
2019-03-22T13:00:58.463Z,15.60
2019-03-22T13:05:11.695Z,15.60
2019-03-22T13:09:24.933Z,15.60
2019-03-22T13:13:37.928Z,15.90
2019-03-22T13:17:51.161Z,16.00
2019-03-22T13:22:04.864Z,15.80
2019-03-22T13:26:18.508Z,15.50
2019-03-22T13:30:36.444Z,15.50
2019-03-22T13:34:49.252Z,15.50
2019-03-22T13:39:04.623Z,15.60
2019-03-22T13:43:17.577Z,15.70
2019-03-22T13:47:30.813Z,15.60
2019-03-22T13:51:43.706Z,15.70
2019-03-22T13:55:56.762Z,15.80
2019-03-22T14:00:10.524Z,15.60
2019-03-22T14:04:23.720Z,15.70
2019-03-22T14:08:37.305Z,15.50
2019-03-22T14:12:50.583Z,15.50
2019-03-22T14:17:03.552Z,15.30
2019-03-22T14:21:16.650Z,15.30
2019-03-22T14:25:30.185Z,15.40
2019-03-22T14:29:43.624Z,15.30
2019-03-22T14:33:57.011Z,15.00
2019-03-22T14:38:09.931Z,15.20
2019-03-22T14:42:22.967Z,15.40
2019-03-22T14:46:36.621Z,15.20
2019-03-22T14:50:50.268Z,15.00
2019-03-22T14:55:03.911Z,15.20
2019-03-22T14:59:17.201Z,15.20
2019-03-22T15:03:30.168Z,15.20
2019-03-22T15:07:43.188Z,15.20
2019-03-22T15:11:57.040Z,15.20
2019-03-22T15:16:20.227Z,15.20
2019-03-22T15:21:11.877Z,15.20
2019-03-22T15:25:49.769Z,15.10
2019-03-22T15:30:20.411Z,14.90
2019-03-22T15:34:55.355Z,14.80
2019-03-22T15:39:44.317Z,14.80
2019-03-22T15:43:57.879Z,14.70
2019-03-22T15:48:11.513Z,14.80
2019-03-22T15:52:24.823Z,14.70
2019-03-22T15:56:37.751Z,14.70
2019-03-22T16:00:50.784Z,14.90
2019-03-22T16:05:04.876Z,14.90
2019-03-22T16:09:17.879Z,15.00
2019-03-22T16:13:31.637Z,15.10
2019-03-22T16:17:45.020Z,14.80
2019-03-22T16:21:58.724Z,14.70
2019-03-22T16:26:12.365Z,14.50
2019-03-22T16:30:25.843Z,14.40
2019-03-22T16:34:38.615Z,14.50
2019-03-22T16:38:51.671Z,14.30
2019-03-22T16:43:05.176Z,14.10
2019-03-22T16:47:19.136Z,14.20
2019-03-22T16:51:32.716Z,14.20
2019-03-22T16:55:45.928Z,14.00
2019-03-22T16:59:59.576Z,14.00
2019-03-22T17:04:13.218Z,13.80
2019-03-22T17:08:27.155Z,13.80
2019-03-22T17:12:40.384Z,13.70
2019-03-22T17:16:54.396Z,13.70
2019-03-22T17:21:07.631Z,13.50
2019-03-22T17:25:20.818Z,13.50
2019-03-22T17:29:33.801Z,13.50
2019-03-22T17:33:46.995Z,13.50
2019-03-22T17:38:00.249Z,13.50
2019-03-22T17:42:13.024Z,13.50
2019-03-22T17:46:26.081Z,13.30
2019-03-22T17:50:39.396Z,13.20
2019-03-22T17:54:52.250Z,13.00
2019-03-22T17:59:05.288Z,12.80
2019-03-22T18:03:18.685Z,12.70
2019-03-22T18:07:32.118Z,12.50
2019-03-22T18:11:45.358Z,12.20
2019-03-22T18:15:58.365Z,12.10
2019-03-22T18:20:12.334Z,12.20
2019-03-22T18:24:25.303Z,12.20
2019-03-22T18:28:38.505Z,12.10
2019-03-22T18:32:52.273Z,12.10
2019-03-22T18:37:06.232Z,12.00
2019-03-22T18:41:19.364Z,12.00
2019-03-22T18:45:32.999Z,12.00
2019-03-22T18:49:46.234Z,11.80
2019-03-22T18:53:59.143Z,11.60
2019-03-22T18:58:13.399Z,11.50
2019-03-22T19:02:26.285Z,11.50
2019-03-22T19:06:39.321Z,11.40
2019-03-22T19:10:52.608Z,11.40
2019-03-22T19:15:05.674Z,11.40
2019-03-22T19:19:18.820Z,11.30
2019-03-22T19:23:31.900Z,11.20
2019-03-22T19:27:45.124Z,11.10
2019-03-22T19:32:00.277Z,10.80
2019-03-22T19:36:12.960Z,10.60
2019-03-22T19:40:26.260Z,10.60
2019-03-22T19:44:39.555Z,10.60
2019-03-22T19:48:53.548Z,10.60
2019-03-22T19:53:06.701Z,10.60
2019-03-22T19:57:19.620Z,10.60
2019-03-22T20:01:32.641Z,10.40
2019-03-22T20:05:45.877Z,10.30
2019-03-22T20:09:58.863Z,10.20
2019-03-22T20:14:11.955Z,10.00
2019-03-22T20:18:25.698Z,9.80
2019-03-22T20:22:39.112Z,9.70
2019-03-22T20:26:52.783Z,9.70
2019-03-22T20:31:06.049Z,9.70
2019-03-22T20:35:19.037Z,9.70
2019-03-22T20:39:32.019Z,9.60
2019-03-22T20:43:45.289Z,9.70
2019-03-22T20:47:58.525Z,9.70
2019-03-22T20:52:11.348Z,9.70
2019-03-22T20:56:24.523Z,9.60
2019-03-22T21:00:38.155Z,9.50
2019-03-22T21:04:51.375Z,9.50
2019-03-22T21:09:04.600Z,9.50
2019-03-22T21:13:17.684Z,9.40
2019-03-22T21:17:31.044Z,9.40
2019-03-22T21:21:44.502Z,9.40
2019-03-22T21:25:57.741Z,9.40
2019-03-22T21:30:10.579Z,9.40
2019-03-22T21:34:23.702Z,9.40
2019-03-22T21:38:37.435Z,9.40
2019-03-22T21:42:50.714Z,9.50
2019-03-22T21:47:04.016Z,9.50
2019-03-22T21:51:17.336Z,9.50
2019-03-22T21:55:30.842Z,9.30
2019-03-22T21:59:43.723Z,9.10
2019-03-22T22:03:56.851Z,9.00
2019-03-22T22:08:09.987Z,9.00
2019-03-22T22:12:22.937Z,8.90
2019-03-22T22:16:36.118Z,8.70
2019-03-22T22:20:49.577Z,8.80
2019-03-22T22:25:02.820Z,9.00
2019-03-22T22:29:15.648Z,9.10
2019-03-22T22:33:28.777Z,9.20
2019-03-22T22:37:42.216Z,9.20
2019-03-22T22:41:55.799Z,9.10
2019-03-22T22:46:10.524Z,9.00
2019-03-22T22:50:23.572Z,9.00
2019-03-22T22:54:36.604Z,9.00
2019-03-22T22:58:50.608Z,9.00
2019-03-22T23:03:04.063Z,8.90
2019-03-22T23:07:17.372Z,8.90
2019-03-22T23:11:31.090Z,8.80
2019-03-22T23:15:44.864Z,8.70
2019-03-22T23:19:58.218Z,8.80
2019-03-22T23:24:11.790Z,8.70
2019-03-22T23:28:25.037Z,8.60
2019-03-22T23:32:37.956Z,8.60
2019-03-22T23:36:51.131Z,8.50
2019-03-22T23:41:04.325Z,8.50
2019-03-22T23:45:17.176Z,8.50
2019-03-22T23:49:31.493Z,8.50
2019-03-22T23:53:44.973Z,8.40
2019-03-22T23:57:58.287Z,8.50
